createdAt,value
2018-07-25T00:00:00.944Z,22.48
2018-07-25T00:01:01.145Z,22.48
2018-07-25T00:02:01.027Z,22.48
2018-07-25T00:03:00.910Z,22.48
2018-07-25T00:04:00.947Z,22.48
2018-07-25T00:05:00.994Z,22.47
2018-07-25T00:06:00.905Z,22.48
2018-07-25T00:07:01.209Z,22.48
2018-07-25T00:08:00.857Z,22.47
2018-07-25T00:09:01.051Z,22.48
2018-07-25T00:10:00.936Z,22.48
2018-07-25T00:11:01.160Z,22.47
2018-07-25T00:12:00.968Z,22.48
2018-07-25T00:13:00.944Z,22.47
2018-07-25T00:14:01.076Z,22.47
2018-07-25T00:15:00.976Z,22.47
2018-07-25T00:16:01.242Z,22.47
2018-07-25T00:17:01.048Z,22.47
2018-07-25T00:18:01.134Z,22.47
2018-07-25T00:19:00.989Z,22.48
2018-07-25T00:20:00.953Z,22.47
2018-07-25T00:21:01.059Z,22.47
2018-07-25T00:22:01.049Z,22.47
2018-07-25T00:23:01.090Z,22.47
2018-07-25T00:24:00.924Z,22.47
2018-07-25T00:25:01.045Z,22.47
2018-07-25T00:26:01.131Z,22.47
2018-07-25T00:27:01.152Z,22.47
2018-07-25T00:28:01.103Z,22.46
2018-07-25T00:29:01.178Z,22.46
2018-07-25T00:30:01.001Z,22.47
2018-07-25T00:31:01.166Z,22.46
2018-07-25T00:32:01.219Z,22.47
2018-07-25T00:33:00.908Z,22.46
2018-07-25T00:34:01.089Z,22.46
2018-07-25T00:35:01.095Z,22.47
2018-07-25T00:36:00.948Z,22.46
2018-07-25T00:37:01.099Z,22.46
2018-07-25T00:38:00.996Z,22.46
2018-07-25T00:39:01.036Z,22.46
2018-07-25T00:40:01.013Z,22.47
2018-07-25T00:41:01.119Z,22.46
2018-07-25T00:42:00.952Z,22.47
2018-07-25T00:43:01.277Z,22.46
2018-07-25T00:44:01.005Z,22.46
2018-07-25T00:45:01.254Z,22.47
2018-07-25T00:46:01.381Z,22.46
2018-07-25T00:47:01.002Z,22.46
2018-07-25T00:48:01.005Z,22.46
2018-07-25T00:49:00.914Z,22.47
2018-07-25T00:50:00.833Z,22.46
2018-07-25T00:51:01.088Z,22.46
2018-07-25T00:52:01.119Z,22.46
2018-07-25T00:53:01.246Z,22.46
2018-07-25T00:54:01.199Z,22.46
2018-07-25T00:55:01.112Z,22.46
2018-07-25T00:56:01.168Z,22.46
2018-07-25T00:57:01.244Z,22.46
2018-07-25T00:58:01.225Z,22.47
2018-07-25T00:59:01.093Z,22.46
2018-07-25T01:00:01.042Z,22.46
2018-07-25T01:01:00.972Z,22.46
2018-07-25T01:02:00.907Z,22.45
2018-07-25T01:03:01.056Z,22.46
2018-07-25T01:04:01.119Z,22.45
2018-07-25T01:05:01.007Z,22.45
2018-07-25T01:06:01.195Z,22.45
2018-07-25T01:07:01.148Z,22.46
2018-07-25T01:08:00.924Z,22.45
2018-07-25T01:09:00.874Z,22.46
2018-07-25T01:10:01.070Z,22.46
2018-07-25T01:11:01.028Z,22.46
2018-07-25T01:12:01.113Z,22.46
2018-07-25T01:13:01.040Z,22.45
2018-07-25T01:14:01.000Z,22.46
2018-07-25T01:15:00.988Z,22.45
2018-07-25T01:16:00.961Z,22.45
2018-07-25T01:17:00.937Z,22.45
2018-07-25T01:18:00.944Z,22.45
2018-07-25T01:19:00.959Z,22.46
2018-07-25T01:20:00.965Z,22.45
2018-07-25T01:21:01.113Z,22.45
2018-07-25T01:22:00.998Z,22.46
2018-07-25T01:23:01.212Z,22.46
2018-07-25T01:24:01.153Z,22.45
2018-07-25T01:25:00.951Z,22.45
2018-07-25T01:26:00.977Z,22.45
2018-07-25T01:27:00.876Z,22.46
2018-07-25T01:28:01.108Z,22.45
2018-07-25T01:29:01.070Z,22.45
2018-07-25T01:30:01.185Z,22.45
2018-07-25T01:31:01.077Z,22.45
2018-07-25T01:32:01.194Z,22.46
2018-07-25T01:33:00.844Z,22.45
2018-07-25T01:34:00.981Z,22.45
2018-07-25T01:35:00.983Z,22.45
2018-07-25T01:36:00.896Z,22.46
2018-07-25T01:37:00.997Z,22.44
2018-07-25T01:38:01.124Z,22.45
2018-07-25T01:39:00.931Z,22.45
2018-07-25T01:40:00.942Z,22.45
2018-07-25T01:41:01.251Z,22.45
2018-07-25T01:42:01.033Z,22.45
2018-07-25T01:43:01.027Z,22.46
2018-07-25T01:44:01.024Z,22.44
2018-07-25T01:45:01.025Z,22.45
2018-07-25T01:46:01.126Z,22.45
2018-07-25T01:47:01.359Z,22.45
2018-07-25T01:48:00.926Z,22.45
2018-07-25T01:49:01.326Z,22.45
2018-07-25T01:50:01.218Z,22.44
2018-07-25T01:51:01.147Z,22.45
2018-07-25T01:52:01.191Z,22.45
2018-07-25T01:53:01.002Z,22.45
2018-07-25T01:54:00.846Z,22.44
2018-07-25T01:55:01.136Z,22.45
2018-07-25T01:56:01.073Z,22.44
2018-07-25T01:57:00.895Z,22.45
2018-07-25T01:58:01.314Z,22.45
2018-07-25T01:59:01.062Z,22.44
2018-07-25T02:00:00.947Z,22.44
2018-07-25T02:01:00.845Z,22.44
2018-07-25T02:02:01.171Z,22.43
2018-07-25T02:03:00.838Z,22.44
2018-07-25T02:04:01.129Z,22.44
2018-07-25T02:05:01.156Z,22.44
2018-07-25T02:06:00.998Z,22.44
2018-07-25T02:07:01.071Z,22.45
2018-07-25T02:08:01.336Z,22.44
2018-07-25T02:09:01.012Z,22.44
2018-07-25T02:10:01.065Z,22.45
2018-07-25T02:11:01.079Z,22.44
2018-07-25T02:12:00.878Z,22.44
2018-07-25T02:13:00.979Z,22.44
2018-07-25T02:14:01.161Z,22.44
2018-07-25T02:15:01.064Z,22.43
2018-07-25T02:16:01.196Z,22.43
2018-07-25T02:17:01.102Z,22.44
2018-07-25T02:18:01.133Z,22.43
2018-07-25T02:19:01.085Z,22.44
2018-07-25T02:20:01.167Z,22.44
2018-07-25T02:21:00.911Z,22.44
2018-07-25T02:22:01.129Z,22.43
2018-07-25T02:23:01.148Z,22.43
2018-07-25T02:24:01.144Z,22.44
2018-07-25T02:25:00.975Z,22.44
2018-07-25T02:26:00.870Z,22.44
2018-07-25T02:27:00.940Z,22.44
2018-07-25T02:28:01.052Z,22.44
2018-07-25T02:29:01.053Z,22.44
2018-07-25T02:30:00.926Z,22.44
2018-07-25T02:31:01.041Z,22.44
2018-07-25T02:32:00.972Z,22.44
2018-07-25T02:33:00.939Z,22.44
2018-07-25T02:34:00.896Z,22.44
2018-07-25T02:35:01.097Z,22.44
2018-07-25T02:36:00.894Z,22.44
2018-07-25T02:37:01.264Z,22.44
2018-07-25T02:38:01.196Z,22.43
2018-07-25T02:39:00.921Z,22.44
2018-07-25T02:40:01.030Z,22.44
2018-07-25T02:41:01.008Z,22.44
2018-07-25T02:42:00.893Z,22.43
2018-07-25T02:43:01.045Z,22.44
2018-07-25T02:44:01.026Z,22.43
2018-07-25T02:45:01.095Z,22.43
2018-07-25T02:46:01.113Z,22.44
2018-07-25T02:47:01.367Z,22.43
2018-07-25T02:48:00.885Z,22.43
2018-07-25T02:49:01.024Z,22.43
2018-07-25T02:50:01.031Z,22.43
2018-07-25T02:51:01.063Z,22.44
2018-07-25T02:52:01.109Z,22.43
2018-07-25T02:53:00.840Z,22.43
2018-07-25T02:54:01.051Z,22.43
2018-07-25T02:55:01.036Z,22.43
2018-07-25T02:56:00.902Z,22.43
2018-07-25T02:57:00.949Z,22.44
2018-07-25T02:58:00.933Z,22.43
2018-07-25T02:59:01.057Z,22.43
2018-07-25T03:00:01.087Z,22.44
2018-07-25T03:01:01.112Z,22.43
2018-07-25T03:02:01.639Z,22.43
2018-07-25T03:03:01.004Z,22.43
2018-07-25T03:04:00.897Z,22.43
2018-07-25T03:05:01.047Z,22.43
2018-07-25T03:06:00.901Z,22.43
2018-07-25T03:07:01.524Z,22.43
2018-07-25T03:08:01.307Z,22.44
2018-07-25T03:09:01.506Z,22.43
2018-07-25T03:10:01.233Z,22.44
2018-07-25T03:11:01.095Z,22.43
2018-07-25T03:12:01.108Z,22.43
2018-07-25T03:13:00.984Z,22.43
2018-07-25T03:14:01.065Z,22.43
2018-07-25T03:15:01.031Z,22.43
2018-07-25T03:16:01.059Z,22.43
2018-07-25T03:17:01.109Z,22.43
2018-07-25T03:18:01.077Z,22.43
2018-07-25T03:19:01.199Z,22.44
2018-07-25T03:20:01.263Z,22.43
2018-07-25T03:21:01.184Z,22.42
2018-07-25T03:22:00.952Z,22.43
2018-07-25T03:23:00.978Z,22.44
2018-07-25T03:24:00.830Z,22.43
2018-07-25T03:25:01.905Z,22.43
2018-07-25T03:26:00.908Z,22.42
2018-07-25T03:27:00.994Z,22.43
2018-07-25T03:28:01.002Z,22.43
2018-07-25T03:29:01.399Z,22.43
2018-07-25T03:30:00.987Z,22.43
2018-07-25T03:31:00.993Z,22.43
2018-07-25T03:32:01.117Z,22.42
2018-07-25T03:33:00.866Z,22.43
2018-07-25T03:34:01.433Z,22.42
2018-07-25T03:35:00.983Z,22.42
2018-07-25T03:36:01.286Z,22.42
2018-07-25T03:37:01.136Z,22.43
2018-07-25T03:38:01.461Z,22.43
2018-07-25T03:39:01.167Z,22.43
2018-07-25T03:40:01.081Z,22.42
2018-07-25T03:41:00.862Z,22.43
2018-07-25T03:42:11.012Z,22.43
2018-07-25T03:43:01.197Z,22.42
2018-07-25T03:44:00.960Z,22.42
2018-07-25T03:45:01.042Z,22.42
2018-07-25T03:46:01.168Z,22.43
2018-07-25T03:47:00.834Z,22.42
2018-07-25T03:48:00.994Z,22.43
2018-07-25T03:49:00.927Z,22.42
2018-07-25T03:50:00.958Z,22.42
2018-07-25T03:51:01.030Z,22.42
2018-07-25T03:52:00.967Z,22.43
2018-07-25T03:53:01.001Z,22.42
2018-07-25T03:54:00.929Z,22.42
2018-07-25T03:55:01.078Z,22.42
2018-07-25T03:56:00.871Z,22.42
2018-07-25T03:57:00.914Z,22.42
2018-07-25T03:58:00.800Z,22.42
2018-07-25T03:59:01.064Z,22.43
2018-07-25T04:00:01.025Z,22.42
2018-07-25T04:01:00.912Z,22.42
2018-07-25T04:02:00.987Z,22.42
2018-07-25T04:03:01.232Z,22.42
2018-07-25T04:04:01.033Z,22.42
2018-07-25T04:05:00.817Z,22.42
2018-07-25T04:06:01.103Z,22.42
2018-07-25T04:07:00.964Z,22.42
2018-07-25T04:08:01.035Z,22.42
2018-07-25T04:09:01.050Z,22.43
2018-07-25T04:10:01.007Z,22.42
2018-07-25T04:11:00.906Z,22.42
2018-07-25T04:12:01.033Z,22.42
2018-07-25T04:13:00.883Z,22.42
2018-07-25T04:14:00.926Z,22.42
2018-07-25T04:15:00.992Z,22.42
2018-07-25T04:16:01.154Z,22.41
2018-07-25T04:17:01.081Z,22.42
2018-07-25T04:18:01.154Z,22.42
2018-07-25T04:19:00.737Z,22.43
2018-07-25T04:20:01.025Z,22.42
2018-07-25T04:21:01.042Z,22.41
2018-07-25T04:22:01.114Z,22.41
2018-07-25T04:23:00.900Z,22.41
2018-07-25T04:24:00.922Z,22.41
2018-07-25T04:25:01.040Z,22.41
2018-07-25T04:26:00.896Z,22.41
2018-07-25T04:27:00.908Z,22.41
2018-07-25T04:28:00.892Z,22.41
2018-07-25T04:29:00.949Z,22.41
2018-07-25T04:30:01.032Z,22.41
2018-07-25T04:31:01.068Z,22.41
2018-07-25T04:32:00.860Z,22.41
2018-07-25T04:33:01.141Z,22.41
2018-07-25T04:34:00.926Z,22.4
2018-07-25T04:35:00.912Z,22.41
2018-07-25T04:36:01.227Z,22.42
2018-07-25T04:37:01.007Z,22.41
2018-07-25T04:38:01.081Z,22.41
2018-07-25T04:39:01.134Z,22.41
2018-07-25T04:40:01.051Z,22.41
2018-07-25T04:41:00.840Z,22.41
2018-07-25T04:42:01.072Z,22.41
2018-07-25T04:43:01.131Z,22.41
2018-07-25T04:44:00.864Z,22.41
2018-07-25T04:45:01.015Z,22.4
2018-07-25T04:46:01.153Z,22.41
2018-07-25T04:47:01.105Z,22.41
2018-07-25T04:48:00.980Z,22.41
2018-07-25T04:49:01.100Z,22.41
2018-07-25T04:50:00.881Z,22.41
2018-07-25T04:51:01.023Z,22.41
2018-07-25T04:52:01.044Z,22.4
2018-07-25T04:53:01.079Z,22.41
2018-07-25T04:54:00.918Z,22.41
2018-07-25T04:55:00.947Z,22.41
2018-07-25T04:56:00.894Z,22.41
2018-07-25T04:57:00.938Z,22.41
2018-07-25T04:58:01.072Z,22.41
2018-07-25T04:59:00.801Z,22.4
2018-07-25T05:00:00.987Z,22.41
2018-07-25T05:01:00.798Z,22.4
2018-07-25T05:02:00.954Z,22.41
2018-07-25T05:03:00.926Z,22.41
2018-07-25T05:04:00.922Z,22.41
2018-07-25T05:05:00.813Z,22.41
2018-07-25T05:06:00.994Z,22.41
2018-07-25T05:07:00.902Z,22.42
2018-07-25T05:08:00.835Z,22.41
2018-07-25T05:09:01.065Z,22.42
2018-07-25T05:10:00.836Z,22.41
2018-07-25T05:11:00.956Z,22.41
2018-07-25T05:12:01.045Z,22.41
2018-07-25T05:13:01.043Z,22.41
2018-07-25T05:14:01.011Z,22.41
2018-07-25T05:15:01.030Z,22.41
2018-07-25T05:16:01.017Z,22.41
2018-07-25T05:17:00.948Z,22.4
2018-07-25T05:18:01.426Z,22.41
2018-07-25T05:19:00.959Z,22.41
2018-07-25T05:20:01.006Z,22.41
2018-07-25T05:21:00.849Z,22.41
2018-07-25T05:22:01.052Z,22.41
2018-07-25T05:23:00.894Z,22.4
2018-07-25T05:24:01.161Z,22.41
2018-07-25T05:25:01.095Z,22.41
2018-07-25T05:26:00.799Z,22.41
2018-07-25T05:27:01.084Z,22.41
2018-07-25T05:28:00.995Z,22.41
2018-07-25T05:29:01.082Z,22.41
2018-07-25T05:30:01.014Z,22.41
2018-07-25T05:31:00.969Z,22.41
2018-07-25T05:32:00.813Z,22.41
2018-07-25T05:33:00.746Z,22.42
2018-07-25T05:34:01.088Z,22.4
2018-07-25T05:35:00.817Z,22.41
2018-07-25T05:36:01.101Z,22.41
2018-07-25T05:37:00.986Z,22.4
2018-07-25T05:38:01.201Z,22.41
2018-07-25T05:39:00.986Z,22.41
2018-07-25T05:40:00.865Z,22.4
2018-07-25T05:41:00.964Z,22.41
2018-07-25T05:42:01.060Z,22.4
2018-07-25T05:43:01.009Z,22.41
2018-07-25T05:44:00.807Z,22.4
2018-07-25T05:45:00.970Z,22.41
2018-07-25T05:46:00.976Z,22.41
2018-07-25T05:47:00.940Z,22.41
2018-07-25T05:48:00.940Z,22.41
2018-07-25T05:49:01.029Z,22.4
2018-07-25T05:50:00.959Z,22.41
2018-07-25T05:51:00.951Z,22.41
2018-07-25T05:52:00.782Z,22.41
2018-07-25T05:53:00.852Z,22.4
2018-07-25T05:54:01.069Z,22.41
2018-07-25T05:55:00.944Z,22.41
2018-07-25T05:56:00.953Z,22.41
2018-07-25T05:57:00.877Z,22.41
2018-07-25T05:58:01.016Z,22.41
2018-07-25T05:59:00.835Z,22.41
2018-07-25T06:00:00.920Z,22.41
2018-07-25T06:01:00.931Z,22.41
2018-07-25T06:02:00.844Z,22.4
2018-07-25T06:03:01.164Z,22.41
2018-07-25T06:04:00.966Z,22.41
2018-07-25T06:05:00.965Z,22.4
2018-07-25T06:06:01.096Z,22.41
2018-07-25T06:07:00.877Z,22.41
2018-07-25T06:08:00.858Z,22.4
2018-07-25T06:09:00.935Z,22.41
2018-07-25T06:10:00.892Z,22.4
2018-07-25T06:11:01.013Z,22.41
2018-07-25T06:12:00.799Z,22.41
2018-07-25T06:13:00.866Z,22.41
2018-07-25T06:14:00.883Z,22.4
2018-07-25T06:15:00.979Z,22.41
2018-07-25T06:16:00.906Z,22.4
2018-07-25T06:17:00.860Z,22.41
2018-07-25T06:18:00.803Z,22.41
2018-07-25T06:19:00.975Z,22.4
2018-07-25T06:20:00.765Z,22.41
2018-07-25T06:21:00.926Z,22.41
2018-07-25T06:22:00.838Z,22.41
2018-07-25T06:23:00.809Z,22.4
2018-07-25T06:24:00.909Z,22.41
2018-07-25T06:25:01.002Z,22.41
2018-07-25T06:26:00.894Z,22.4
2018-07-25T06:27:00.831Z,22.41
2018-07-25T06:28:00.942Z,22.4
2018-07-25T06:29:00.777Z,22.4
2018-07-25T06:30:00.901Z,22.41
2018-07-25T06:31:01.091Z,22.41
2018-07-25T06:32:00.818Z,22.4
2018-07-25T06:33:01.017Z,22.4
2018-07-25T06:34:00.824Z,22.41
2018-07-25T06:35:00.953Z,22.41
2018-07-25T06:36:00.782Z,22.4
2018-07-25T06:37:00.951Z,22.41
2018-07-25T06:38:00.877Z,22.4
2018-07-25T06:39:00.907Z,22.41
2018-07-25T06:40:00.953Z,22.41
2018-07-25T06:41:00.779Z,22.41
2018-07-25T06:42:01.141Z,22.4
2018-07-25T06:43:00.954Z,22.41
2018-07-25T06:44:00.884Z,22.41
2018-07-25T06:45:00.825Z,22.4
2018-07-25T06:46:00.956Z,22.41
2018-07-25T06:47:01.246Z,22.41
2018-07-25T06:48:00.878Z,22.4
2018-07-25T06:49:00.954Z,22.42
2018-07-25T06:50:00.834Z,22.41
2018-07-25T06:51:00.977Z,22.41
2018-07-25T06:52:00.940Z,22.41
2018-07-25T06:53:00.819Z,22.41
2018-07-25T06:54:00.872Z,22.41
2018-07-25T06:55:00.966Z,22.41
2018-07-25T06:56:01.010Z,22.41
2018-07-25T06:57:01.187Z,22.41
2018-07-25T06:58:01.159Z,22.42
2018-07-25T06:59:00.934Z,22.41
2018-07-25T07:00:01.062Z,22.41
2018-07-25T07:01:00.899Z,22.41
2018-07-25T07:02:00.820Z,22.41
2018-07-25T07:03:01.027Z,22.41
2018-07-25T07:04:00.712Z,22.41
2018-07-25T07:05:01.006Z,22.41
2018-07-25T07:06:01.046Z,22.41
2018-07-25T07:07:01.085Z,22.41
2018-07-25T07:08:00.905Z,22.41
2018-07-25T07:09:00.789Z,22.41
2018-07-25T07:10:00.929Z,22.43
2018-07-25T07:11:01.049Z,22.41
2018-07-25T07:12:00.884Z,22.42
2018-07-25T07:13:00.959Z,22.41
2018-07-25T07:14:01.128Z,22.41
2018-07-25T07:15:01.120Z,22.42
2018-07-25T07:16:00.938Z,22.42
2018-07-25T07:17:00.732Z,22.41
2018-07-25T07:18:01.049Z,22.41
2018-07-25T07:19:01.056Z,22.42
2018-07-25T07:20:00.870Z,22.42
2018-07-25T07:21:00.903Z,22.41
2018-07-25T07:22:00.774Z,22.41
2018-07-25T07:23:01.061Z,22.42
2018-07-25T07:24:01.047Z,22.41
2018-07-25T07:25:00.814Z,22.41
2018-07-25T07:26:00.969Z,22.41
2018-07-25T07:27:00.855Z,22.42
2018-07-25T07:28:00.841Z,22.42
2018-07-25T07:29:00.855Z,22.42
2018-07-25T07:30:01.016Z,22.42
2018-07-25T07:31:00.957Z,22.42
2018-07-25T07:32:00.874Z,22.41
2018-07-25T07:33:00.932Z,22.42
2018-07-25T07:34:00.995Z,22.42
2018-07-25T07:35:00.939Z,22.42
2018-07-25T07:36:00.975Z,22.43
2018-07-25T07:37:00.959Z,22.42
2018-07-25T07:38:00.823Z,22.41
2018-07-25T07:39:00.875Z,22.41
2018-07-25T07:40:00.990Z,22.42
2018-07-25T07:41:00.889Z,22.42
2018-07-25T07:42:00.923Z,22.41
2018-07-25T07:43:00.858Z,22.42
2018-07-25T07:44:10.830Z,22.41
2018-07-25T07:45:00.879Z,22.41
2018-07-25T07:46:00.772Z,22.42
2018-07-25T07:47:01.010Z,22.41
2018-07-25T07:48:00.971Z,22.41
2018-07-25T07:49:01.010Z,22.42
2018-07-25T07:50:01.035Z,22.42
2018-07-25T07:51:01.059Z,22.42
2018-07-25T07:52:00.838Z,22.41
2018-07-25T07:53:00.914Z,22.42
2018-07-25T07:54:01.021Z,22.41
2018-07-25T07:55:00.998Z,22.41
2018-07-25T07:56:00.881Z,22.41
2018-07-25T07:57:00.984Z,22.42
2018-07-25T07:58:00.772Z,22.41
2018-07-25T07:59:00.995Z,22.41
2018-07-25T08:00:00.946Z,22.41
2018-07-25T08:01:00.878Z,22.4
2018-07-25T08:02:00.892Z,22.4
2018-07-25T08:03:01.080Z,22.44
2018-07-25T08:04:00.890Z,22.44
2018-07-25T08:05:01.015Z,22.44
2018-07-25T08:06:00.874Z,22.45
2018-07-25T08:07:00.723Z,22.48
2018-07-25T08:08:00.935Z,22.49
2018-07-25T08:09:00.935Z,22.5
2018-07-25T08:10:00.952Z,22.52
2018-07-25T08:11:01.027Z,22.52
2018-07-25T08:12:00.911Z,22.52
2018-07-25T08:13:00.875Z,22.53
2018-07-25T08:14:00.906Z,22.53
2018-07-25T08:15:01.146Z,22.54
2018-07-25T08:16:00.727Z,22.56
2018-07-25T08:17:00.875Z,22.54
2018-07-25T08:18:00.911Z,22.56
2018-07-25T08:19:00.946Z,22.57
2018-07-25T08:20:00.877Z,22.57
2018-07-25T08:21:00.977Z,22.57
2018-07-25T08:22:00.873Z,22.58
2018-07-25T08:23:00.819Z,22.58
2018-07-25T08:24:00.878Z,22.57
2018-07-25T08:25:00.915Z,22.6
2018-07-25T08:26:00.946Z,22.59
2018-07-25T08:27:00.901Z,22.58
2018-07-25T08:28:00.908Z,22.57
2018-07-25T08:29:00.964Z,22.56
2018-07-25T08:30:01.008Z,22.55
2018-07-25T08:31:00.994Z,22.55
2018-07-25T08:32:01.059Z,22.55
2018-07-25T08:33:01.062Z,22.54
2018-07-25T08:34:00.851Z,22.54
2018-07-25T08:35:00.950Z,22.53
2018-07-25T08:36:01.133Z,22.54
2018-07-25T08:37:01.022Z,22.53
2018-07-25T08:38:00.913Z,22.52
2018-07-25T08:39:00.927Z,22.52
2018-07-25T08:40:00.980Z,22.52
2018-07-25T08:41:00.998Z,22.52
2018-07-25T09:41:27.206Z,22.13
2018-07-25T09:42:27.295Z,22.16
2018-07-25T09:43:27.434Z,22.16
2018-07-25T09:44:27.314Z,22.17
2018-07-25T09:46:27.315Z,22.19
2018-07-25T09:47:27.320Z,22.2
2018-07-25T09:48:27.172Z,22.2
2018-07-25T09:49:27.233Z,22.21
2018-07-25T09:51:27.239Z,22.23
2018-07-25T09:54:27.309Z,22.25
2018-07-25T09:55:27.262Z,22.26
2018-07-25T09:56:27.200Z,22.27
2018-07-25T09:57:27.181Z,22.27
2018-07-25T09:59:27.223Z,22.28
2018-07-25T10:00:27.161Z,22.28
2018-07-25T10:01:27.040Z,22.29
2018-07-25T10:04:27.078Z,22.3
2018-07-25T10:06:27.161Z,22.31
2018-07-25T10:07:27.186Z,22.32
2018-07-25T10:08:27.225Z,22.32
2018-07-25T10:09:27.148Z,22.33
2018-07-25T10:11:27.228Z,22.33
2018-07-25T10:12:27.115Z,22.34
2018-07-25T10:13:27.329Z,22.34
2018-07-25T10:14:27.191Z,22.35
2018-07-25T10:16:27.197Z,22.34
2018-07-25T10:17:27.240Z,22.35
2018-07-25T10:18:27.236Z,22.35
2018-07-25T10:19:27.211Z,22.35
2018-07-25T10:21:27.179Z,22.35
2018-07-25T10:22:27.183Z,22.36
2018-07-25T10:24:27.253Z,22.36
2018-07-25T10:25:27.290Z,22.37
2018-07-25T10:26:27.212Z,22.37
2018-07-25T10:27:27.275Z,22.37
2018-07-25T10:29:27.186Z,22.37
2018-07-25T10:30:27.286Z,22.39
2018-07-25T10:31:27.202Z,22.39
2018-07-25T10:34:27.192Z,22.39
2018-07-25T10:36:27.300Z,22.4
2018-07-25T10:37:27.365Z,22.39
2018-07-25T10:38:27.289Z,22.39
2018-07-25T10:41:27.215Z,22.4
2018-07-25T10:42:27.203Z,22.4
2018-07-25T10:43:27.449Z,22.4
2018-07-25T10:46:27.163Z,22.4
2018-07-25T10:47:27.161Z,22.4
2018-07-25T10:48:27.193Z,22.4
2018-07-25T10:49:27.203Z,22.41
2018-07-25T10:51:27.110Z,22.41
2018-07-25T10:53:27.287Z,22.41
2018-07-25T10:54:27.386Z,22.41
2018-07-25T10:55:27.312Z,22.4
2018-07-25T10:56:27.486Z,22.41
2018-07-25T10:58:27.359Z,22.4
2018-07-25T10:59:27.174Z,22.41
2018-07-25T11:00:27.242Z,22.42
2018-07-25T11:01:27.341Z,22.41
2018-07-25T11:04:27.494Z,22.45
2018-07-25T11:05:27.210Z,22.46
2018-07-25T11:06:27.161Z,22.46
2018-07-25T11:08:27.185Z,22.44
2018-07-25T11:09:27.175Z,22.44
2018-07-25T11:10:27.366Z,22.44
2018-07-25T11:11:27.661Z,22.44
2018-07-25T11:14:27.189Z,22.45
2018-07-25T11:15:27.026Z,22.45
2018-07-25T11:16:27.199Z,22.45
2018-07-25T11:19:27.612Z,22.45
2018-07-25T11:20:27.471Z,22.45
2018-07-25T11:21:27.568Z,22.44
2018-07-25T11:22:27.260Z,22.44
2018-07-25T11:24:27.188Z,22.45
2018-07-25T11:26:27.319Z,22.45
2018-07-25T11:27:27.238Z,22.45
2018-07-25T11:28:27.217Z,22.45
2018-07-25T11:29:28.019Z,22.45
2018-07-25T11:31:27.192Z,22.44
2018-07-25T11:32:27.248Z,22.45
2018-07-25T11:33:27.484Z,22.45
2018-07-25T11:34:27.267Z,22.45
2018-07-25T11:36:27.143Z,22.45
2018-07-25T11:37:27.130Z,22.45
2018-07-25T11:38:27.170Z,22.45
2018-07-25T11:39:27.140Z,22.45
2018-07-25T11:41:27.185Z,22.44
2018-07-25T11:42:27.166Z,22.46
2018-07-25T11:43:27.177Z,22.45
2018-07-25T11:44:27.169Z,22.45
2018-07-25T11:46:27.166Z,22.46
2018-07-25T11:48:27.129Z,22.45
2018-07-25T11:49:27.143Z,22.46
2018-07-25T11:50:27.211Z,22.45
2018-07-25T11:52:27.169Z,22.45
2018-07-25T11:53:27.170Z,22.45
2018-07-25T11:54:27.127Z,22.45
2018-07-25T11:55:27.253Z,22.46
2018-07-25T11:57:27.162Z,22.46
2018-07-25T11:58:27.217Z,22.46
2018-07-25T11:59:27.118Z,22.45
2018-07-25T12:00:27.129Z,22.45
2018-07-25T12:02:27.274Z,22.44
2018-07-25T12:03:27.229Z,22.46
2018-07-25T12:04:27.176Z,22.45
2018-07-25T12:05:27.058Z,22.45
2018-07-25T12:08:27.201Z,22.46
2018-07-25T12:09:27.110Z,22.45
2018-07-25T12:10:27.140Z,22.46
2018-07-25T12:11:27.227Z,22.46
2018-07-25T12:13:27.288Z,22.45
2018-07-25T12:14:27.202Z,22.46
2018-07-25T12:15:27.193Z,22.45
2018-07-25T12:16:27.179Z,22.45
2018-07-25T12:19:27.178Z,22.45
2018-07-25T12:20:27.289Z,22.46
2018-07-25T12:21:27.101Z,22.46
2018-07-25T12:24:27.126Z,22.46
2018-07-25T12:25:27.156Z,22.46
2018-07-25T12:26:27.306Z,22.46
2018-07-25T12:29:27.153Z,22.46
2018-07-25T12:30:27.120Z,22.46
2018-07-25T12:31:27.226Z,22.46
2018-07-25T12:35:27.299Z,22.46
2018-07-25T12:36:27.200Z,22.46
2018-07-25T12:37:27.245Z,22.46
2018-07-25T12:38:27.158Z,22.47
2018-07-25T12:40:27.104Z,22.46
2018-07-25T12:41:27.232Z,22.47
2018-07-25T12:42:27.286Z,22.46
2018-07-25T12:43:27.113Z,22.46
2018-07-25T12:46:27.155Z,22.46
2018-07-25T12:48:27.182Z,22.48
2018-07-25T12:51:27.116Z,22.52
2018-07-25T12:52:27.154Z,22.52
2018-07-25T12:53:27.077Z,22.53
2018-07-25T12:55:27.018Z,22.5
2018-07-25T12:56:27.158Z,22.52
2018-07-25T12:57:27.099Z,22.55
2018-07-25T12:58:27.163Z,22.56
2018-07-25T13:00:27.113Z,22.56
2018-07-25T13:01:27.146Z,22.57
2018-07-25T13:02:27.156Z,22.55
2018-07-25T13:03:27.125Z,22.56
2018-07-25T13:05:27.158Z,22.56
2018-07-25T13:06:27.016Z,22.56
2018-07-25T13:07:27.154Z,22.55
2018-07-25T13:08:27.181Z,22.55
2018-07-25T13:10:27.210Z,22.55
2018-07-25T13:11:27.250Z,22.55
2018-07-25T13:12:27.150Z,22.55
2018-07-25T13:13:27.311Z,22.54
2018-07-25T13:17:27.144Z,22.54
2018-07-25T13:18:27.120Z,22.54
2018-07-25T13:19:27.209Z,22.53
2018-07-25T13:20:27.185Z,22.54
2018-07-25T13:22:27.238Z,22.53
2018-07-25T13:23:27.162Z,22.53
2018-07-25T13:24:27.135Z,22.53
2018-07-25T13:25:27.291Z,22.53
2018-07-25T13:28:27.560Z,22.52
2018-07-25T13:29:27.118Z,22.52
2018-07-25T13:30:27.086Z,22.52
2018-07-25T13:33:27.153Z,22.53
2018-07-25T13:34:27.256Z,22.52
2018-07-25T13:35:27.276Z,22.52
2018-07-25T13:36:27.067Z,22.52
2018-07-25T13:38:27.175Z,22.52
2018-07-25T13:39:27.206Z,22.52
2018-07-25T13:40:27.140Z,22.51
2018-07-25T13:42:27.167Z,22.52
2018-07-25T13:43:27.128Z,22.51
2018-07-25T13:44:27.156Z,22.51
2018-07-25T13:45:27.305Z,22.52
2018-07-25T13:48:27.091Z,22.52
2018-07-25T13:49:27.138Z,22.51
2018-07-25T13:50:27.112Z,22.52
2018-07-25T13:51:27.322Z,22.52
2018-07-25T13:53:27.114Z,22.51
2018-07-25T13:54:27.185Z,22.52
2018-07-25T13:55:27.144Z,22.51
2018-07-25T13:56:27.137Z,22.51
2018-07-25T13:58:27.253Z,22.51
2018-07-25T13:59:27.193Z,22.5
2018-07-25T14:00:27.079Z,22.52
2018-07-25T14:01:26.952Z,22.51
2018-07-25T14:03:27.082Z,22.51
2018-07-25T14:04:27.169Z,22.5
2018-07-25T14:05:27.144Z,22.51
2018-07-25T14:06:27.056Z,22.51
2018-07-25T14:08:27.137Z,22.51
2018-07-25T14:10:27.098Z,22.5
2018-07-25T14:11:27.152Z,22.5
2018-07-25T14:12:27.097Z,22.51
2018-07-25T14:13:27.103Z,22.5
2018-07-25T14:16:27.118Z,22.5
2018-07-25T14:17:26.968Z,22.5
2018-07-25T14:19:27.123Z,22.5
2018-07-25T14:20:27.090Z,22.51
2018-07-25T14:21:27.094Z,22.51
2018-07-25T14:22:27.128Z,22.51
2018-07-25T14:24:27.217Z,22.5
2018-07-25T14:25:27.012Z,22.51
2018-07-25T14:27:27.373Z,22.5
2018-07-25T14:28:27.233Z,22.51
2018-07-25T14:29:27.218Z,22.51
2018-07-25T14:31:27.184Z,22.5
2018-07-25T14:32:27.104Z,22.51
2018-07-25T14:33:27.412Z,22.5
2018-07-25T14:34:27.141Z,22.5
2018-07-25T14:36:27.371Z,22.51
2018-07-25T14:37:27.131Z,22.51
2018-07-25T14:38:27.166Z,22.5
2018-07-25T14:39:27.058Z,22.51
2018-07-25T14:41:27.080Z,22.5
2018-07-25T14:42:27.064Z,22.51
2018-07-25T14:43:27.217Z,22.5
2018-07-25T14:44:27.133Z,22.51
2018-07-25T14:46:27.095Z,22.5
2018-07-25T14:47:27.116Z,22.5
2018-07-25T14:48:27.049Z,22.51
2018-07-25T14:49:27.089Z,22.51
2018-07-25T14:51:27.109Z,22.51
2018-07-25T14:54:27.237Z,22.5
2018-07-25T14:55:27.163Z,22.51
2018-07-25T14:57:27.129Z,22.51
2018-07-25T14:58:27.024Z,22.51
2018-07-25T14:59:27.260Z,22.51
2018-07-25T15:00:27.093Z,22.51
2018-07-25T15:02:27.194Z,22.51
2018-07-25T15:03:27.085Z,22.5
2018-07-25T15:04:27.212Z,22.5
2018-07-25T15:06:27.063Z,22.51
2018-07-25T15:07:27.104Z,22.51
2018-07-25T15:09:27.095Z,22.51
2018-07-25T15:10:27.107Z,22.51
2018-07-25T15:11:27.284Z,22.51
2018-07-25T15:15:27.063Z,22.51
2018-07-25T15:16:27.219Z,22.51
2018-07-25T15:17:27.217Z,22.51
2018-07-25T15:20:27.072Z,22.52
2018-07-25T15:21:27.075Z,22.51
2018-07-25T15:22:27.078Z,22.5
2018-07-25T15:23:26.940Z,22.51
2018-07-25T15:25:27.062Z,22.5
2018-07-25T15:27:27.054Z,22.51
2018-07-25T15:28:27.170Z,22.51
2018-07-25T15:29:27.185Z,22.51
2018-07-25T15:32:27.074Z,22.51
2018-07-25T15:33:27.056Z,22.51
2018-07-25T15:34:27.114Z,22.52
2018-07-25T15:35:27.076Z,22.51
2018-07-25T15:37:27.104Z,22.52
2018-07-25T15:38:27.083Z,22.51
2018-07-25T15:39:27.165Z,22.51